KMLE

Millard Airport

Omaha, Nebraska, USA
METAR KMLE 140415Z AUTO 14004KT 10SM CLR M02/M07 A3045 RMK AO2 T10201070
Observed Flight Rules
Nov-14 @ 04:15 UTC (34 minutes ago) Visual Flight Rules
Wind Visibility Clouds
140° at 4 knots 10 miles
  • Clear skies
Temperatures Readings
Current -2°C / 28°F
Dewpoint -7°C / 19°F
Humidity 69%
Altimeter 30.45" Hg
Pressure 1031 hPa
Elevation 320
METAR KMLE 140415Z AUTO 14004KT 10SM CLR M02/M07 A3045 RMK AO2 T10201070
Observed Flight Rules
Nov-14 @ 04:15 UTC
(34 minutes ago)
VFR
Wind Visibility
140° at 4 knots 10 miles
Clouds
  • Clear skies
Temperature Dewpoint
-2°C / 28°F -7°C / 19°F
Humidity Altimeter Pressure
69% 30.45" Hg 1031 hPa